createdAt,value
2023-01-26T00:00:00.313Z,13.00
2023-01-26T00:02:28.622Z,14.50
2023-01-26T00:04:56.924Z,14.67
2023-01-26T00:07:25.129Z,14.00
2023-01-26T00:09:53.416Z,13.75
2023-01-26T00:12:21.684Z,12.00
2023-01-26T00:14:50.166Z,17.33
2023-01-26T00:17:26.381Z,15.00
2023-01-26T00:19:56.218Z,15.00
2023-01-26T00:22:26.298Z,11.50
2023-01-26T00:24:54.599Z,14.50
2023-01-26T00:27:22.788Z,9.00
2023-01-26T00:29:51.028Z,12.50
2023-01-26T00:32:19.320Z,19.00
2023-01-26T00:34:47.575Z,10.50
2023-01-26T00:37:15.870Z,11.00
2023-01-26T00:39:44.016Z,13.00
2023-01-26T00:42:14.235Z,15.00
2023-01-26T00:44:43.239Z,12.50
2023-01-26T00:47:12.669Z,15.50
2023-01-26T00:49:40.869Z,10.50
2023-01-26T00:52:09.224Z,10.33
2023-01-26T00:54:37.421Z,12.00
2023-01-26T00:57:05.612Z,12.00
2023-01-26T00:59:33.871Z,15.50
2023-01-26T01:02:02.984Z,14.00
2023-01-26T01:04:31.434Z,13.00
2023-01-26T01:06:59.667Z,9.67
2023-01-26T01:09:27.883Z,16.00
2023-01-26T01:11:56.111Z,10.00
2023-01-26T01:14:24.421Z,13.00
2023-01-26T01:16:52.713Z,13.00
2023-01-26T01:19:20.929Z,10.00
2023-01-26T01:21:49.164Z,11.50
2023-01-26T01:24:17.445Z,12.00
2023-01-26T01:26:45.704Z,13.33
2023-01-26T01:29:14.421Z,11.00
2023-01-26T01:31:43.524Z,11.25
2023-01-26T01:34:11.811Z,13.00
2023-01-26T01:36:40.020Z,12.50
2023-01-26T01:39:08.562Z,16.00
2023-01-26T01:41:36.822Z,17.50
2023-01-26T01:44:14.051Z,8.00
2023-01-26T01:46:47.361Z,14.33
2023-01-26T01:49:27.332Z,10.33
2023-01-26T01:52:11.531Z,13.00
2023-01-26T01:54:49.072Z,12.00
2023-01-26T01:57:28.001Z,13.00
2023-01-26T02:00:02.886Z,11.50
2023-01-26T02:02:31.402Z,12.50
2023-01-26T02:05:04.708Z,14.67
2023-01-26T02:07:33.366Z,12.00
2023-01-26T02:10:20.251Z,12.67
2023-01-26T02:12:51.066Z,11.50
2023-01-26T02:15:19.316Z,17.00
2023-01-26T02:17:47.611Z,12.00
2023-01-26T02:20:40.387Z,17.00
2023-01-26T02:23:18.080Z,12.33
2023-01-26T02:25:56.349Z,13.00
2023-01-26T02:28:28.097Z,12.00
2023-01-26T02:30:56.703Z,16.00
2023-01-26T02:33:27.637Z,12.50
2023-01-26T02:35:55.878Z,10.00
2023-01-26T02:38:28.610Z,15.00
2023-01-26T02:41:03.349Z,15.00
2023-01-26T02:43:32.513Z,12.33
2023-01-26T02:46:00.777Z,14.00
2023-01-26T02:48:47.436Z,12.00
2023-01-26T02:51:15.606Z,12.00
2023-01-26T02:53:43.820Z,12.00
2023-01-26T02:56:12.032Z,9.00
2023-01-26T02:58:40.373Z,9.00
2023-01-26T03:01:08.610Z,13.00
2023-01-26T03:03:42.494Z,11.75
2023-01-26T03:06:12.595Z,13.00
2023-01-26T03:08:40.907Z,11.50
2023-01-26T03:11:09.439Z,10.00
2023-01-26T03:13:37.676Z,15.00
2023-01-26T03:16:10.498Z,10.25
2023-01-26T03:18:57.175Z,12.00
2023-01-26T03:21:43.870Z,10.33
2023-01-26T03:24:31.272Z,13.00
2023-01-26T03:27:18.905Z,11.00
2023-01-26T03:29:47.313Z,12.67
2023-01-26T03:32:15.960Z,14.00
2023-01-26T03:34:44.299Z,12.50
2023-01-26T03:37:12.588Z,13.00
2023-01-26T03:39:59.074Z,16.00
2023-01-26T03:42:45.565Z,10.50
2023-01-26T03:45:32.198Z,12.50
2023-01-26T03:48:23.936Z,11.00
2023-01-26T03:51:10.539Z,11.00
2023-01-26T03:53:57.087Z,12.00
2023-01-26T03:56:25.540Z,10.00
2023-01-26T03:58:54.664Z,11.50
2023-01-26T04:01:27.981Z,12.50
2023-01-26T04:04:15.594Z,12.25
2023-01-26T04:07:06.883Z,11.00
2023-01-26T04:09:36.956Z,13.00
2023-01-26T04:12:05.686Z,10.25
2023-01-26T04:14:52.319Z,14.50
2023-01-26T04:17:39.186Z,11.00
2023-01-26T04:20:26.396Z,10.00
2023-01-26T04:22:54.609Z,9.00
2023-01-26T04:25:23.328Z,14.00
2023-01-26T04:27:51.871Z,10.00
2023-01-26T04:30:20.395Z,14.00
2023-01-26T04:32:48.748Z,13.50
2023-01-26T04:35:17.108Z,8.00
2023-01-26T04:37:45.328Z,12.67
2023-01-26T04:40:13.993Z,16.00
2023-01-26T04:42:42.509Z,13.00
2023-01-26T04:45:11.879Z,14.00
2023-01-26T04:47:40.120Z,10.00
2023-01-26T04:50:09.418Z,13.50
2023-01-26T04:52:37.772Z,14.00
2023-01-26T04:55:06.182Z,13.00
2023-01-26T04:57:34.397Z,12.00
2023-01-26T05:00:02.558Z,9.50
2023-01-26T05:02:30.841Z,8.00
2023-01-26T05:04:59.097Z,10.50
2023-01-26T05:07:27.247Z,12.00
2023-01-26T05:09:55.877Z,13.25
2023-01-26T05:12:36.497Z,10.00
2023-01-26T05:15:05.014Z,12.50
2023-01-26T05:17:33.252Z,9.67
2023-01-26T05:20:01.433Z,10.00
2023-01-26T05:22:29.688Z,13.00
2023-01-26T05:24:57.965Z,12.00
2023-01-26T05:27:26.272Z,13.67
2023-01-26T05:29:59.158Z,13.00
2023-01-26T05:32:28.952Z,12.00
2023-01-26T05:34:57.921Z,8.00
2023-01-26T05:37:27.456Z,6.67
2023-01-26T05:39:55.892Z,8.50
2023-01-26T05:42:24.755Z,8.00
2023-01-26T05:44:53.310Z,9.00
2023-01-26T05:47:21.532Z,14.00
2023-01-26T05:49:49.839Z,12.00
2023-01-26T05:52:20.229Z,13.00
2023-01-26T05:54:48.771Z,8.00
2023-01-26T05:57:19.750Z,13.00
2023-01-26T05:59:48.008Z,12.00
2023-01-26T06:02:16.293Z,14.75
2023-01-26T06:04:44.552Z,13.50
2023-01-26T06:07:15.488Z,11.00
2023-01-26T06:09:43.847Z,14.50
2023-01-26T06:12:17.031Z,15.00
2023-01-26T06:14:47.251Z,11.00
2023-01-26T06:17:17.254Z,15.67
2023-01-26T06:19:45.502Z,15.00
2023-01-26T06:22:14.285Z,14.00
2023-01-26T06:24:42.706Z,12.33
2023-01-26T06:27:15.699Z,12.25
2023-01-26T06:29:44.814Z,13.00
2023-01-26T06:32:14.452Z,10.00
2023-01-26T06:34:42.780Z,12.50
2023-01-26T06:37:11.038Z,14.00
2023-01-26T06:39:40.408Z,13.50
2023-01-26T06:42:09.175Z,9.00
2023-01-26T06:44:37.431Z,13.50
2023-01-26T06:47:07.322Z,12.33
2023-01-26T06:49:35.582Z,13.67
2023-01-26T06:52:06.319Z,11.67
2023-01-26T06:54:34.508Z,12.00
2023-01-26T06:57:02.700Z,12.50
2023-01-26T06:59:30.958Z,11.00
2023-01-26T07:01:59.122Z,7.50
2023-01-26T07:04:27.968Z,12.00
2023-01-26T07:06:56.194Z,8.50
2023-01-26T07:09:24.378Z,9.00
2023-01-26T07:11:52.966Z,13.00
2023-01-26T07:14:21.273Z,16.00
2023-01-26T07:16:49.516Z,9.50
2023-01-26T07:19:17.860Z,13.00
2023-01-26T07:21:46.195Z,14.50
2023-01-26T07:24:14.523Z,10.50
2023-01-26T07:26:42.907Z,14.50
2023-01-26T07:29:11.087Z,11.00
2023-01-26T07:31:39.308Z,13.00
2023-01-26T07:34:07.585Z,9.00
2023-01-26T07:36:35.809Z,13.00
2023-01-26T07:39:07.116Z,14.00
2023-01-26T07:41:36.332Z,16.00
2023-01-26T07:44:06.775Z,8.00
2023-01-26T07:46:35.078Z,14.00
2023-01-26T07:49:03.646Z,12.00
2023-01-26T07:51:31.977Z,12.00
2023-01-26T07:54:00.501Z,10.67
2023-01-26T07:56:28.720Z,11.50
2023-01-26T07:58:57.405Z,12.50
2023-01-26T08:01:25.697Z,12.67
2023-01-26T08:03:54.262Z,15.50
2023-01-26T08:06:22.666Z,12.00
2023-01-26T08:08:51.744Z,12.00
2023-01-26T08:11:22.960Z,10.00
2023-01-26T08:13:51.304Z,13.50
2023-01-26T08:16:19.592Z,12.50
2023-01-26T08:18:48.284Z,11.50
2023-01-26T08:21:18.646Z,11.00
2023-01-26T08:23:51.273Z,12.50
2023-01-26T08:26:20.390Z,14.00
2023-01-26T08:28:48.947Z,13.00
2023-01-26T08:31:20.165Z,14.00
2023-01-26T08:33:51.048Z,15.50
2023-01-26T08:36:22.128Z,22.00
2023-01-26T08:38:51.805Z,26.00
2023-01-26T08:41:20.175Z,22.00
2023-01-26T08:43:48.531Z,27.00
2023-01-26T08:46:16.805Z,23.67
2023-01-26T08:48:45.164Z,25.00
2023-01-26T08:51:13.392Z,27.00
2023-01-26T08:53:41.636Z,21.00
2023-01-26T08:56:12.548Z,26.50
2023-01-26T08:58:40.753Z,9.50
2023-01-26T09:01:12.555Z,24.00
2023-01-26T09:03:41.275Z,30.50
2023-01-26T09:06:11.573Z,28.00
2023-01-26T09:08:39.801Z,24.00
2023-01-26T09:11:09.060Z,22.67
2023-01-26T09:13:39.159Z,23.00
2023-01-26T09:16:10.402Z,20.00
2023-01-26T09:18:38.579Z,27.00
2023-01-26T09:21:08.379Z,22.00
2023-01-26T09:23:36.897Z,25.50
2023-01-26T09:26:05.317Z,23.50
2023-01-26T09:28:33.830Z,34.00
2023-01-26T09:31:06.486Z,22.50
2023-01-26T09:33:35.207Z,24.00
2023-01-26T09:36:08.311Z,27.50
2023-01-26T09:38:36.655Z,29.00
2023-01-26T09:41:11.144Z,28.00
2023-01-26T09:43:44.198Z,22.00
2023-01-26T09:46:23.037Z,25.33
2023-01-26T09:49:07.330Z,23.00
2023-01-26T09:51:38.495Z,30.00
2023-01-26T09:54:31.617Z,25.00
2023-01-26T09:57:06.254Z,29.00
2023-01-26T09:59:49.406Z,32.50
2023-01-26T10:02:37.978Z,19.00
2023-01-26T10:05:36.524Z,25.50
2023-01-26T10:08:11.159Z,25.00
2023-01-26T10:10:43.465Z,22.00
2023-01-26T10:13:14.815Z,19.75
2023-01-26T10:15:44.317Z,17.50
2023-01-26T10:18:18.425Z,20.33
2023-01-26T10:20:51.609Z,19.00
2023-01-26T10:23:29.108Z,23.00
2023-01-26T10:26:11.336Z,25.67
2023-01-26T10:28:40.079Z,22.50
2023-01-26T10:31:23.053Z,22.00
2023-01-26T10:33:55.262Z,25.00
2023-01-26T10:36:23.843Z,22.50
2023-01-26T10:38:52.876Z,27.50
2023-01-26T10:41:29.356Z,27.50
2023-01-26T10:44:15.970Z,23.50
2023-01-26T10:46:44.401Z,26.00
2023-01-26T10:49:12.684Z,23.50
2023-01-26T10:51:45.387Z,19.75
2023-01-26T10:54:23.747Z,29.00
2023-01-26T10:57:05.017Z,28.00
2023-01-26T10:59:50.891Z,20.50
2023-01-26T11:02:31.008Z,22.00
2023-01-26T11:05:04.013Z,22.50
2023-01-26T11:07:40.648Z,18.00
2023-01-26T11:10:32.012Z,23.00
2023-01-26T11:13:26.813Z,20.00
2023-01-26T11:16:10.452Z,17.50
2023-01-26T11:18:42.852Z,24.00
2023-01-26T11:21:39.432Z,22.33
2023-01-26T11:24:13.947Z,16.00
2023-01-26T11:27:06.374Z,26.00
2023-01-26T11:29:58.480Z,22.75
2023-01-26T11:32:29.687Z,24.00
2023-01-26T11:35:23.891Z,25.50
2023-01-26T11:38:01.412Z,27.00
2023-01-26T11:40:41.213Z,22.00
2023-01-26T11:43:22.073Z,30.00
2023-01-26T11:46:28.998Z,30.33
2023-01-26T11:49:24.178Z,26.00
2023-01-26T11:52:04.527Z,27.00
2023-01-26T11:54:43.635Z,34.00
2023-01-26T11:57:15.632Z,28.67
2023-01-26T11:59:51.316Z,25.50
2023-01-26T12:02:36.258Z,26.00
2023-01-26T12:05:14.686Z,32.50
2023-01-26T12:08:00.503Z,30.50
2023-01-26T12:11:21.084Z,24.00
2023-01-26T12:14:08.622Z,27.00
2023-01-26T12:17:15.679Z,30.00
2023-01-26T12:19:55.497Z,22.00
2023-01-26T12:22:33.981Z,28.00
2023-01-26T12:25:20.388Z,33.00
2023-01-26T12:28:12.881Z,26.00
2023-01-26T12:30:44.548Z,31.33
2023-01-26T12:33:13.102Z,24.67
2023-01-26T12:36:04.198Z,20.50
2023-01-26T12:38:43.138Z,28.00
2023-01-26T12:41:36.009Z,30.00
2023-01-26T12:44:27.125Z,21.00
2023-01-26T12:47:02.103Z,26.00
2023-01-26T12:49:37.498Z,25.00
2023-01-26T12:52:11.311Z,24.00
2023-01-26T12:54:58.833Z,21.00
2023-01-26T12:57:43.115Z,27.00
2023-01-26T13:00:33.052Z,34.50
2023-01-26T13:03:23.385Z,22.00
2023-01-26T13:05:56.943Z,24.50
2023-01-26T13:08:31.006Z,20.00
2023-01-26T13:11:01.023Z,26.50
2023-01-26T13:13:32.323Z,29.00
2023-01-26T13:16:15.878Z,25.00
2023-01-26T13:18:55.007Z,26.50
2023-01-26T13:21:44.328Z,24.00
2023-01-26T13:24:18.673Z,25.50
2023-01-26T13:26:54.663Z,21.50
2023-01-26T13:29:25.849Z,22.00
2023-01-26T13:32:17.881Z,22.00
2023-01-26T13:35:00.042Z,24.75
2023-01-26T13:37:40.547Z,25.00
2023-01-26T13:40:20.872Z,25.50
2023-01-26T13:42:57.083Z,27.00
2023-01-26T13:45:39.379Z,22.50
2023-01-26T13:48:15.510Z,23.00
2023-01-26T13:50:43.918Z,14.67
2023-01-26T13:53:49.631Z,21.00
2023-01-26T13:56:30.956Z,25.00
2023-01-26T13:59:13.109Z,19.50
2023-01-26T14:01:49.614Z,17.00
2023-01-26T14:04:22.738Z,18.00
2023-01-26T14:07:06.839Z,27.67
2023-01-26T14:09:45.033Z,19.00
2023-01-26T14:12:25.643Z,24.00
2023-01-26T14:14:57.355Z,20.00
2023-01-26T14:17:30.750Z,26.00
2023-01-26T14:20:03.871Z,19.00
2023-01-26T14:22:32.180Z,21.50
2023-01-26T14:25:00.394Z,21.50
2023-01-26T14:27:41.417Z,27.00
2023-01-26T14:30:30.061Z,19.00
2023-01-26T14:33:12.313Z,21.00
2023-01-26T14:35:41.782Z,21.00
2023-01-26T14:38:14.402Z,23.50
2023-01-26T14:40:47.705Z,20.00
2023-01-26T14:43:16.757Z,26.50
2023-01-26T14:46:08.220Z,23.00
2023-01-26T14:48:47.713Z,22.33
2023-01-26T14:51:21.765Z,20.50
2023-01-26T14:53:51.974Z,24.00
2023-01-26T14:56:22.835Z,24.00
2023-01-26T14:58:53.573Z,21.00
2023-01-26T15:01:26.481Z,21.00
2023-01-26T15:04:01.849Z,22.67
2023-01-26T15:06:31.243Z,21.33
2023-01-26T15:09:02.522Z,22.33
2023-01-26T15:11:57.265Z,21.00
2023-01-26T15:14:48.320Z,21.00
2023-01-26T15:17:30.500Z,15.75
2023-01-26T15:19:58.814Z,21.50
2023-01-26T15:22:27.484Z,20.50
2023-01-26T15:25:20.033Z,19.00
2023-01-26T15:27:53.685Z,23.50
2023-01-26T15:30:32.384Z,19.50
2023-01-26T15:33:01.196Z,17.00
2023-01-26T15:35:32.232Z,23.00
2023-01-26T15:38:11.820Z,18.00
2023-01-26T15:40:40.315Z,14.00
2023-01-26T15:43:16.393Z,19.67
2023-01-26T15:45:50.870Z,19.00
2023-01-26T15:48:19.393Z,16.33
2023-01-26T15:50:48.446Z,18.33
2023-01-26T15:53:22.709Z,21.50
2023-01-26T15:55:56.322Z,18.00
2023-01-26T15:58:25.904Z,17.00
2023-01-26T16:00:54.229Z,19.50
2023-01-26T16:03:22.775Z,12.00
2023-01-26T16:05:51.018Z,18.00
2023-01-26T16:08:19.857Z,25.00
2023-01-26T16:10:48.291Z,13.00
2023-01-26T16:13:18.985Z,29.00
2023-01-26T16:15:51.944Z,16.50
2023-01-26T16:18:21.039Z,18.33
2023-01-26T16:20:50.208Z,18.50
2023-01-26T16:23:22.702Z,22.00
2023-01-26T16:25:51.493Z,19.00
2023-01-26T16:28:19.858Z,18.67
2023-01-26T16:30:51.002Z,22.00
2023-01-26T16:33:21.478Z,20.33
2023-01-26T16:35:49.921Z,18.25
2023-01-26T16:38:18.229Z,18.00
2023-01-26T16:40:48.132Z,19.00
2023-01-26T16:43:24.842Z,17.00
2023-01-26T16:45:53.258Z,21.00
2023-01-26T16:48:22.319Z,22.00
2023-01-26T16:50:52.677Z,24.00
2023-01-26T16:53:33.357Z,24.50
2023-01-26T16:56:01.869Z,17.00
2023-01-26T16:58:32.907Z,23.67
2023-01-26T17:01:01.488Z,18.00
2023-01-26T17:03:29.737Z,22.50
2023-01-26T17:05:58.121Z,12.67
2023-01-26T17:08:26.452Z,22.50
2023-01-26T17:11:02.188Z,20.00
2023-01-26T17:13:34.598Z,18.00
2023-01-26T17:16:03.225Z,21.75
2023-01-26T17:18:33.659Z,18.00
2023-01-26T17:21:03.152Z,19.00
2023-01-26T17:23:31.620Z,15.00
2023-01-26T17:26:00.569Z,16.67
2023-01-26T17:28:28.850Z,23.00
2023-01-26T17:30:58.893Z,14.33
2023-01-26T17:33:30.156Z,19.00
2023-01-26T17:36:02.369Z,23.33
2023-01-26T17:38:31.083Z,20.00
2023-01-26T17:40:59.645Z,20.67
2023-01-26T17:43:28.030Z,16.67
2023-01-26T17:46:06.766Z,17.50
2023-01-26T17:48:37.814Z,23.00
2023-01-26T17:51:07.940Z,20.50
2023-01-26T17:53:44.642Z,21.00
2023-01-26T17:56:15.584Z,23.00
2023-01-26T17:58:48.865Z,20.67
2023-01-26T18:01:17.900Z,17.67
2023-01-26T18:03:46.346Z,17.00
2023-01-26T18:06:14.685Z,21.67
2023-01-26T18:08:43.111Z,19.00
2023-01-26T18:11:14.352Z,21.50
2023-01-26T18:13:43.610Z,20.33
2023-01-26T18:16:15.818Z,22.00
2023-01-26T18:18:44.481Z,24.00
2023-01-26T18:21:18.956Z,19.00
2023-01-26T18:23:48.286Z,20.00
2023-01-26T18:26:17.782Z,21.00
2023-01-26T18:28:46.509Z,20.00
2023-01-26T18:31:28.007Z,17.00
2023-01-26T18:33:57.735Z,15.50
2023-01-26T18:36:26.703Z,31.50
2023-01-26T18:38:58.526Z,15.67
2023-01-26T18:41:28.152Z,20.75
2023-01-26T18:43:58.583Z,23.00
2023-01-26T18:46:28.189Z,21.00
2023-01-26T18:49:01.102Z,17.50
2023-01-26T18:51:34.843Z,19.33
2023-01-26T18:54:04.418Z,16.00
2023-01-26T18:56:32.751Z,22.00
2023-01-26T18:59:01.037Z,20.00
2023-01-26T19:01:29.396Z,21.50
2023-01-26T19:03:59.015Z,17.00
2023-01-26T19:06:29.073Z,19.00
2023-01-26T19:09:04.611Z,20.33
2023-01-26T19:11:36.026Z,20.67
2023-01-26T19:14:05.391Z,17.50
2023-01-26T19:16:34.118Z,21.50
2023-01-26T19:19:02.682Z,20.00
2023-01-26T19:21:33.512Z,18.50
2023-01-26T19:24:07.869Z,25.50
2023-01-26T19:26:36.164Z,24.00
2023-01-26T19:29:05.299Z,21.00
2023-01-26T19:31:35.363Z,23.67
2023-01-26T19:34:06.003Z,23.00
2023-01-26T19:36:36.445Z,29.00
2023-01-26T19:39:05.683Z,26.25
2023-01-26T19:41:34.797Z,29.00
2023-01-26T19:44:03.105Z,26.00
2023-01-26T19:46:32.129Z,26.00
2023-01-26T19:49:00.467Z,24.00
2023-01-26T19:51:29.644Z,22.67
2023-01-26T19:53:59.083Z,20.00
2023-01-26T19:56:32.745Z,27.00
2023-01-26T19:59:03.777Z,24.33
2023-01-26T20:01:33.106Z,37.67
2023-01-26T20:04:03.799Z,34.00
2023-01-26T20:06:35.775Z,29.50
2023-01-26T20:09:05.484Z,31.67
2023-01-26T20:11:34.283Z,28.50
2023-01-26T20:14:06.093Z,30.00
2023-01-26T20:16:35.456Z,25.00
2023-01-26T20:19:04.434Z,18.00
2023-01-26T20:21:33.788Z,27.00
2023-01-26T20:24:06.926Z,24.50
2023-01-26T20:26:36.107Z,29.00
2023-01-26T20:29:05.244Z,30.00
2023-01-26T20:31:33.687Z,28.50
2023-01-26T20:34:02.416Z,29.00
2023-01-26T20:36:31.748Z,32.00
2023-01-26T20:39:00.089Z,29.00
2023-01-26T20:41:30.341Z,31.50
2023-01-26T20:44:02.080Z,33.50
2023-01-26T20:46:33.725Z,33.00
2023-01-26T20:49:02.573Z,35.00
2023-01-26T20:51:35.971Z,36.50
2023-01-26T20:54:08.882Z,37.50
2023-01-26T20:56:38.462Z,36.00
2023-01-26T20:59:07.804Z,38.00
2023-01-26T21:01:36.695Z,36.00
2023-01-26T21:04:05.781Z,35.33
2023-01-26T21:06:34.687Z,30.00
2023-01-26T21:09:03.712Z,45.00
2023-01-26T21:11:32.178Z,40.33
2023-01-26T21:14:02.084Z,44.00
2023-01-26T21:16:32.519Z,46.00
2023-01-26T21:19:00.766Z,47.50
2023-01-26T21:21:28.959Z,130.67
2023-01-26T21:23:57.288Z,61.00
2023-01-26T21:26:27.932Z,62.00
2023-01-26T21:28:59.063Z,53.00
2023-01-26T21:31:29.773Z,50.00
2023-01-26T21:33:58.788Z,44.00
2023-01-26T21:36:29.308Z,38.50
2023-01-26T21:38:58.724Z,45.00
2023-01-26T21:41:47.900Z,36.50
2023-01-26T21:44:21.715Z,38.00
2023-01-26T21:47:01.342Z,40.00
2023-01-26T21:49:30.113Z,34.50
2023-01-26T21:52:17.475Z,40.00
2023-01-26T21:54:45.799Z,33.50
2023-01-26T21:57:32.459Z,38.00
2023-01-26T22:00:00.701Z,33.00
2023-01-26T22:02:29.014Z,37.00
2023-01-26T22:04:57.233Z,33.00
2023-01-26T22:07:28.198Z,32.00
2023-01-26T22:09:56.411Z,28.00
2023-01-26T22:12:24.774Z,30.50
2023-01-26T22:14:53.110Z,31.00
2023-01-26T22:17:21.778Z,31.00
2023-01-26T22:19:50.119Z,23.50
2023-01-26T22:22:18.372Z,39.00
2023-01-26T22:24:46.634Z,25.00
2023-01-26T22:27:14.928Z,28.50
2023-01-26T22:29:43.205Z,32.00
2023-01-26T22:32:11.789Z,20.33
2023-01-26T22:34:40.523Z,27.00
2023-01-26T22:37:08.785Z,31.00
2023-01-26T22:39:38.415Z,31.00
2023-01-26T22:42:06.725Z,31.00
2023-01-26T22:44:36.481Z,25.00
2023-01-26T22:47:05.052Z,22.50
2023-01-26T22:49:33.631Z,20.00
2023-01-26T22:52:01.842Z,28.00
2023-01-26T22:54:30.124Z,24.00
2023-01-26T22:56:58.367Z,23.00
2023-01-26T22:59:26.674Z,21.67
2023-01-26T23:01:54.865Z,27.00
2023-01-26T23:04:23.346Z,26.00
2023-01-26T23:06:51.681Z,11.33
2023-01-26T23:09:20.055Z,22.33
2023-01-26T23:11:48.287Z,22.50
2023-01-26T23:14:16.618Z,19.00
2023-01-26T23:16:44.910Z,26.00
2023-01-26T23:19:13.127Z,31.00
2023-01-26T23:21:41.401Z,22.00
2023-01-26T23:24:09.792Z,20.33
2023-01-26T23:26:38.033Z,22.33
2023-01-26T23:29:06.195Z,19.00
2023-01-26T23:31:34.402Z,20.00
2023-01-26T23:34:02.592Z,22.00
2023-01-26T23:36:31.001Z,20.00
2023-01-26T23:38:59.192Z,21.00
2023-01-26T23:41:27.521Z,22.00
2023-01-26T23:43:55.724Z,25.50
2023-01-26T23:46:24.069Z,21.50
2023-01-26T23:48:52.295Z,22.00
2023-01-26T23:51:20.671Z,19.50
2023-01-26T23:53:48.868Z,21.00
2023-01-26T23:56:18.132Z,22.00
2023-01-26T23:58:46.414Z,14.00
